sensor_id;sensor_type;location;lat;lon;timestamp;temperature;humidity
21799;DHT22;24973;47.178;15.316;2023-05-19T10:19:35;19.60;99.90
21799;DHT22;24973;47.178;15.316;2023-05-19T10:22:24;19.80;99.90
21799;DHT22;24973;47.178;15.316;2023-05-19T10:25:14;19.90;99.90
21799;DHT22;24973;47.178;15.316;2023-05-19T10:28:08;20.20;99.90
21799;DHT22;24973;47.178;15.316;2023-05-19T10:30:59;20.50;99.90
21799;DHT22;24973;47.178;15.316;2023-05-19T10:34:01;20.30;99.10
21799;DHT22;24973;47.178;15.316;2023-05-19T10:37:09;20.20;99.50
21799;DHT22;24973;47.178;15.316;2023-05-19T10:40:06;19.90;99.80
21799;DHT22;24973;47.178;15.316;2023-05-19T10:43:14;20.20;99.90
21799;DHT22;24973;47.178;15.316;2023-05-19T10:46:12;20.30;99.90
21799;DHT22;24973;47.178;15.316;2023-05-19T10:49:01;20.20;99.90
21799;DHT22;24973;47.178;15.316;2023-05-19T10:51:51;20.00;99.20
21799;DHT22;24973;47.178;15.316;2023-05-19T10:54:44;19.90;99.40
21799;DHT22;24973;47.178;15.316;2023-05-19T10:57:33;19.80;99.90
21799;DHT22;24973;47.178;15.316;2023-05-19T11:00:29;19.90;99.90
21799;DHT22;24973;47.178;15.316;2023-05-19T11:03:18;19.90;98.90
21799;DHT22;24973;47.178;15.316;2023-05-19T11:06:17;19.90;99.20
21799;DHT22;24973;47.178;15.316;2023-05-19T11:09:13;20.00;99.70
21799;DHT22;24973;47.178;15.316;2023-05-19T11:12:04;20.20;99.80
21799;DHT22;24973;47.178;15.316;2023-05-19T11:14:54;21.30;99.30
21799;DHT22;24973;47.178;15.316;2023-05-19T11:17:46;20.60;99.90
21799;DHT22;24973;47.178;15.316;2023-05-19T11:20:37;21.00;98.50
21799;DHT22;24973;47.178;15.316;2023-05-19T11:23:26;21.20;97.60
21799;DHT22;24973;47.178;15.316;2023-05-19T11:26:15;21.30;97.40
21799;DHT22;24973;47.178;15.316;2023-05-19T11:29:30;21.30;97.10
21799;DHT22;24973;47.178;15.316;2023-05-19T11:32:21;21.30;97.00
21799;DHT22;24973;47.178;15.316;2023-05-19T11:35:12;21.20;97.50
21799;DHT22;24973;47.178;15.316;2023-05-19T11:38:03;21.60;97.90
21799;DHT22;24973;47.178;15.316;2023-05-19T11:40:53;22.00;97.30
21799;DHT22;24973;47.178;15.316;2023-05-19T11:43:42;22.30;95.80
21799;DHT22;24973;47.178;15.316;2023-05-19T11:46:32;22.20;95.40
21799;DHT22;24973;47.178;15.316;2023-05-19T11:49:21;22.30;95.80
21799;DHT22;24973;47.178;15.316;2023-05-19T11:52:10;22.30;94.90
21799;DHT22;24973;47.178;15.316;2023-05-19T11:54:59;22.40;94.60
21799;DHT22;24973;47.178;15.316;2023-05-19T11:57:56;21.50;93.60
21799;DHT22;24973;47.178;15.316;2023-05-19T12:00:49;22.00;94.10
21799;DHT22;24973;47.178;15.316;2023-05-19T12:03:40;21.20;92.40
21799;DHT22;24973;47.178;15.316;2023-05-19T12:06:28;20.50;93.50
21799;DHT22;24973;47.178;15.316;2023-05-19T12:09:18;20.20;94.60
21799;DHT22;24973;47.178;15.316;2023-05-19T12:12:07;20.60;96.40
21799;DHT22;24973;47.178;15.316;2023-05-19T12:14:56;21.20;95.90
21799;DHT22;24973;47.178;15.316;2023-05-19T12:17:45;21.70;95.70
21799;DHT22;24973;47.178;15.316;2023-05-19T12:20:38;21.70;93.40
21799;DHT22;24973;47.178;15.316;2023-05-19T12:23:27;21.70;93.80
21799;DHT22;24973;47.178;15.316;2023-05-19T12:26:17;21.90;92.20
21799;DHT22;24973;47.178;15.316;2023-05-19T12:29:08;21.90;92.00
21799;DHT22;24973;47.178;15.316;2023-05-19T12:31:57;22.20;93.00
21799;DHT22;24973;47.178;15.316;2023-05-19T12:34:46;22.50;93.20
21799;DHT22;24973;47.178;15.316;2023-05-19T12:37:40;22.60;92.40
21799;DHT22;24973;47.178;15.316;2023-05-19T12:40:29;22.40;91.60
21799;DHT22;24973;47.178;15.316;2023-05-19T12:43:19;22.20;91.50
21799;DHT22;24973;47.178;15.316;2023-05-19T12:46:09;22.00;90.60
21799;DHT22;24973;47.178;15.316;2023-05-19T12:48:58;21.70;91.20
21799;DHT22;24973;47.178;15.316;2023-05-19T12:51:51;21.30;90.50
21799;DHT22;24973;47.178;15.316;2023-05-19T12:54:41;20.90;91.80
21799;DHT22;24973;47.178;15.316;2023-05-19T12:57:30;20.60;92.10
21799;DHT22;24973;47.178;15.316;2023-05-19T13:00:20;20.50;93.20
21799;DHT22;24973;47.178;15.316;2023-05-19T13:03:14;20.70;93.50
21799;DHT22;24973;47.178;15.316;2023-05-19T13:06:04;21.30;94.50
21799;DHT22;24973;47.178;15.316;2023-05-19T13:08:53;21.80;92.90
21799;DHT22;24973;47.178;15.316;2023-05-19T13:11:44;22.40;92.70
21799;DHT22;24973;47.178;15.316;2023-05-19T13:14:37;22.90;91.80
21799;DHT22;24973;47.178;15.316;2023-05-19T13:17:27;23.00;89.30
21799;DHT22;24973;47.178;15.316;2023-05-19T13:20:16;22.80;89.60
21799;DHT22;24973;47.178;15.316;2023-05-19T13:23:05;22.60;90.00
21799;DHT22;24973;47.178;15.316;2023-05-19T13:25:54;22.30;86.90
21799;DHT22;24973;47.178;15.316;2023-05-19T13:28:44;22.00;89.00
21799;DHT22;24973;47.178;15.316;2023-05-19T13:31:33;21.50;89.10
21799;DHT22;24973;47.178;15.316;2023-05-19T13:34:22;21.40;90.00
21799;DHT22;24973;47.178;15.316;2023-05-19T13:37:11;21.20;90.40
21799;DHT22;24973;47.178;15.316;2023-05-19T13:40:01;21.20;91.00
21799;DHT22;24973;47.178;15.316;2023-05-19T13:42:49;21.20;90.60
21799;DHT22;24973;47.178;15.316;2023-05-19T13:45:39;21.20;91.00
21799;DHT22;24973;47.178;15.316;2023-05-19T13:48:29;21.20;91.40
21799;DHT22;24973;47.178;15.316;2023-05-19T13:51:17;21.30;91.50
21799;DHT22;24973;47.178;15.316;2023-05-19T13:54:06;21.30;90.80
21799;DHT22;24973;47.178;15.316;2023-05-19T13:56:55;21.40;90.90
21799;DHT22;24973;47.178;15.316;2023-05-19T13:59:44;21.50;91.20
21799;DHT22;24973;47.178;15.316;2023-05-19T14:02:45;21.60;91.40
21799;DHT22;24973;47.178;15.316;2023-05-19T14:05:33;21.70;90.20
21799;DHT22;24973;47.178;15.316;2023-05-19T14:08:24;21.50;87.10
21799;DHT22;24973;47.178;15.316;2023-05-19T14:11:16;20.80;88.00
21799;DHT22;24973;47.178;15.316;2023-05-19T14:14:05;20.30;89.40
21799;DHT22;24973;47.178;15.316;2023-05-19T14:16:55;20.20;90.60
21799;DHT22;24973;47.178;15.316;2023-05-19T14:19:45;20.10;91.50
21799;DHT22;24973;47.178;15.316;2023-05-19T14:22:34;20.10;91.40
21799;DHT22;24973;47.178;15.316;2023-05-19T14:25:22;20.00;91.60
21799;DHT22;24973;47.178;15.316;2023-05-19T14:28:11;20.00;92.10
21799;DHT22;24973;47.178;15.316;2023-05-19T14:31:00;20.00;92.00
21799;DHT22;24973;47.178;15.316;2023-05-19T14:33:50;19.90;90.60
21799;DHT22;24973;47.178;15.316;2023-05-19T14:36:40;19.80;90.80
21799;DHT22;24973;47.178;15.316;2023-05-19T14:39:29;19.80;91.50
21799;DHT22;24973;47.178;15.316;2023-05-19T14:42:18;19.90;92.00
21799;DHT22;24973;47.178;15.316;2023-05-19T14:45:07;19.90;92.40
21799;DHT22;24973;47.178;15.316;2023-05-19T14:47:57;20.00;92.40
21799;DHT22;24973;47.178;15.316;2023-05-19T14:50:46;20.10;92.00
21799;DHT22;24973;47.178;15.316;2023-05-19T14:53:36;20.00;91.70
21799;DHT22;24973;47.178;15.316;2023-05-19T14:56:25;20.00;92.30
21799;DHT22;24973;47.178;15.316;2023-05-19T14:59:13;19.90;92.50
21799;DHT22;24973;47.178;15.316;2023-05-19T15:02:02;19.60;91.20
21799;DHT22;24973;47.178;15.316;2023-05-19T15:04:51;19.40;91.30
21799;DHT22;24973;47.178;15.316;2023-05-19T15:07:40;19.20;92.10
21799;DHT22;24973;47.178;15.316;2023-05-19T15:10:30;18.90;92.50
21799;DHT22;24973;47.178;15.316;2023-05-19T15:13:19;18.80;93.50
21799;DHT22;24973;47.178;15.316;2023-05-19T15:16:08;18.70;93.80
21799;DHT22;24973;47.178;15.316;2023-05-19T15:19:02;18.60;94.20
21799;DHT22;24973;47.178;15.316;2023-05-19T15:21:51;18.60;94.50
21799;DHT22;24973;47.178;15.316;2023-05-19T15:24:40;18.40;94.20
21799;DHT22;24973;47.178;15.316;2023-05-19T15:27:30;18.10;94.70
21799;DHT22;24973;47.178;15.316;2023-05-19T15:30:19;18.00;95.60
21799;DHT22;24973;47.178;15.316;2023-05-19T15:33:08;17.90;95.60
21799;DHT22;24973;47.178;15.316;2023-05-19T15:35:57;17.80;95.40
21799;DHT22;24973;47.178;15.316;2023-05-19T15:38:46;17.70;95.40
21799;DHT22;24973;47.178;15.316;2023-05-19T15:41:35;17.80;96.20
21799;DHT22;24973;47.178;15.316;2023-05-19T15:44:25;17.80;96.50
21799;DHT22;24973;47.178;15.316;2023-05-19T15:47:15;17.90;96.00
21799;DHT22;24973;47.178;15.316;2023-05-19T15:50:04;17.80;95.90
21799;DHT22;24973;47.178;15.316;2023-05-19T15:52:53;17.80;96.20
21799;DHT22;24973;47.178;15.316;2023-05-19T15:55:42;17.70;96.60
21799;DHT22;24973;47.178;15.316;2023-05-19T15:58:30;17.80;96.50
21799;DHT22;24973;47.178;15.316;2023-05-19T16:01:20;17.80;97.60
21799;DHT22;24973;47.178;15.316;2023-05-19T16:04:09;17.90;98.10
21799;DHT22;24973;47.178;15.316;2023-05-19T16:06:58;18.00;98.10
21799;DHT22;24973;47.178;15.316;2023-05-19T16:09:47;18.10;98.00
21799;DHT22;24973;47.178;15.316;2023-05-19T16:12:36;18.20;97.80
21799;DHT22;24973;47.178;15.316;2023-05-19T16:15:24;18.30;97.50
21799;DHT22;24973;47.178;15.316;2023-05-19T16:18:15;18.30;97.90
21799;DHT22;24973;47.178;15.316;2023-05-19T16:21:04;18.30;97.90
21799;DHT22;24973;47.178;15.316;2023-05-19T16:23:53;18.30;98.00
21799;DHT22;24973;47.178;15.316;2023-05-19T16:26:41;18.30;98.10
21799;DHT22;24973;47.178;15.316;2023-05-19T16:29:30;18.20;98.00
21799;DHT22;24973;47.178;15.316;2023-05-19T16:32:19;18.20;98.00
21799;DHT22;24973;47.178;15.316;2023-05-19T16:35:09;18.10;97.50
21799;DHT22;24973;47.178;15.316;2023-05-19T16:37:58;17.90;98.00
21799;DHT22;24973;47.178;15.316;2023-05-19T16:40:46;17.80;98.80
21799;DHT22;24973;47.178;15.316;2023-05-19T16:43:35;17.70;99.00
21799;DHT22;24973;47.178;15.316;2023-05-19T16:46:24;17.70;99.10
21799;DHT22;24973;47.178;15.316;2023-05-19T16:49:13;17.60;99.50
21799;DHT22;24973;47.178;15.316;2023-05-19T16:52:04;17.50;99.90
21799;DHT22;24973;47.178;15.316;2023-05-19T16:54:53;17.50;99.90
21799;DHT22;24973;47.178;15.316;2023-05-19T16:57:42;17.40;99.90
21799;DHT22;24973;47.178;15.316;2023-05-19T17:00:31;17.30;99.90
21799;DHT22;24973;47.178;15.316;2023-05-19T17:03:19;17.30;99.90
21799;DHT22;24973;47.178;15.316;2023-05-19T17:06:08;17.20;99.90
21799;DHT22;24973;47.178;15.316;2023-05-19T17:08:58;16.10;99.90
21799;DHT22;24973;47.178;15.316;2023-05-19T17:11:47;17.10;99.90
21799;DHT22;24973;47.178;15.316;2023-05-19T17:14:36;17.10;99.90
21799;DHT22;24973;47.178;15.316;2023-05-19T17:17:25;17.00;99.90
21799;DHT22;24973;47.178;15.316;2023-05-19T17:20:14;17.00;99.90
21799;DHT22;24973;47.178;15.316;2023-05-19T17:23:02;16.70;99.90
21799;DHT22;24973;47.178;15.316;2023-05-19T17:25:54;16.60;99.90
21799;DHT22;24973;47.178;15.316;2023-05-19T17:28:43;16.40;99.90
21799;DHT22;24973;47.178;15.316;2023-05-19T17:31:32;16.30;99.90
21799;DHT22;24973;47.178;15.316;2023-05-19T17:34:20;16.20;99.90
21799;DHT22;24973;47.178;15.316;2023-05-19T17:37:09;16.20;99.90
21799;DHT22;24973;47.178;15.316;2023-05-19T17:39:58;16.20;99.90
21799;DHT22;24973;47.178;15.316;2023-05-19T17:42:48;16.10;99.90
21799;DHT22;24973;47.178;15.316;2023-05-19T17:45:37;16.10;99.90
21799;DHT22;24973;47.178;15.316;2023-05-19T17:48:25;16.00;99.90
21799;DHT22;24973;47.178;15.316;2023-05-19T17:51:14;16.00;99.90
21799;DHT22;24973;47.178;15.316;2023-05-19T17:54:04;15.90;99.90
21799;DHT22;24973;47.178;15.316;2023-05-19T17:56:57;15.90;99.90
21799;DHT22;24973;47.178;15.316;2023-05-19T17:59:48;15.80;99.90
21799;DHT22;24973;47.178;15.316;2023-05-19T18:02:38;15.70;99.90
21799;DHT22;24973;47.178;15.316;2023-05-19T18:05:27;15.60;99.90
21799;DHT22;24973;47.178;15.316;2023-05-19T18:08:17;15.50;99.90
21799;DHT22;24973;47.178;15.316;2023-05-19T18:11:06;15.50;99.90
21799;DHT22;24973;47.178;15.316;2023-05-19T18:13:55;15.30;99.90
21799;DHT22;24973;47.178;15.316;2023-05-19T18:16:46;15.30;99.90
21799;DHT22;24973;47.178;15.316;2023-05-19T18:19:35;15.20;99.90
21799;DHT22;24973;47.178;15.316;2023-05-19T18:22:25;15.20;99.90
21799;DHT22;24973;47.178;15.316;2023-05-19T18:25:14;15.10;99.90
21799;DHT22;24973;47.178;15.316;2023-05-19T18:28:04;15.00;99.90
21799;DHT22;24973;47.178;15.316;2023-05-19T18:30:58;14.90;99.90
21799;DHT22;24973;47.178;15.316;2023-05-19T18:33:48;14.80;99.90
21799;DHT22;24973;47.178;15.316;2023-05-19T18:36:37;14.70;99.90
21799;DHT22;24973;47.178;15.316;2023-05-19T18:39:25;14.60;99.90
21799;DHT22;24973;47.178;15.316;2023-05-19T18:42:15;14.60;99.90
21799;DHT22;24973;47.178;15.316;2023-05-19T18:45:05;14.50;99.90
21799;DHT22;24973;47.178;15.316;2023-05-19T18:47:54;14.50;99.90
21799;DHT22;24973;47.178;15.316;2023-05-19T18:50:44;14.40;99.90
21799;DHT22;24973;47.178;15.316;2023-05-19T18:53:33;14.30;99.90
21799;DHT22;24973;47.178;15.316;2023-05-19T18:56:22;14.30;99.90
21799;DHT22;24973;47.178;15.316;2023-05-19T18:59:12;14.20;99.90
21799;DHT22;24973;47.178;15.316;2023-05-19T19:02:00;14.20;99.90
21799;DHT22;24973;47.178;15.316;2023-05-19T19:04:49;14.10;99.90
21799;DHT22;24973;47.178;15.316;2023-05-19T19:07:40;14.10;99.90
21799;DHT22;24973;47.178;15.316;2023-05-19T19:10:29;14.00;99.90
21799;DHT22;24973;47.178;15.316;2023-05-19T19:13:20;14.10;99.90
21799;DHT22;24973;47.178;15.316;2023-05-19T19:16:09;14.00;99.90
21799;DHT22;24973;47.178;15.316;2023-05-19T19:18:58;14.00;99.90
21799;DHT22;24973;47.178;15.316;2023-05-19T19:21:47;14.00;99.90
21799;DHT22;24973;47.178;15.316;2023-05-19T19:24:37;14.00;99.90
21799;DHT22;24973;47.178;15.316;2023-05-19T19:27:25;14.00;99.90
21799;DHT22;24973;47.178;15.316;2023-05-19T19:30:17;14.10;99.90
21799;DHT22;24973;47.178;15.316;2023-05-19T19:33:06;14.10;99.90
21799;DHT22;24973;47.178;15.316;2023-05-19T19:35:54;14.20;99.90
21799;DHT22;24973;47.178;15.316;2023-05-19T19:38:43;14.20;99.90
21799;DHT22;24973;47.178;15.316;2023-05-19T19:41:33;14.20;99.90
21799;DHT22;24973;47.178;15.316;2023-05-19T19:44:22;14.10;99.90
21799;DHT22;24973;47.178;15.316;2023-05-19T19:47:11;14.20;99.90
21799;DHT22;24973;47.178;15.316;2023-05-19T19:50:00;14.20;99.90
21799;DHT22;24973;47.178;15.316;2023-05-19T19:52:51;14.00;99.90
21799;DHT22;24973;47.178;15.316;2023-05-19T19:55:40;13.90;99.90
21799;DHT22;24973;47.178;15.316;2023-05-19T19:58:30;13.80;99.90
21799;DHT22;24973;47.178;15.316;2023-05-19T20:01:19;13.70;99.90
21799;DHT22;24973;47.178;15.316;2023-05-19T20:04:09;13.60;99.90
21799;DHT22;24973;47.178;15.316;2023-05-19T20:06:58;13.60;99.90
21799;DHT22;24973;47.178;15.316;2023-05-19T20:09:47;13.60;99.90
21799;DHT22;24973;47.178;15.316;2023-05-19T20:12:37;13.60;99.90
21799;DHT22;24973;47.178;15.316;2023-05-19T20:15:27;13.70;99.90
21799;DHT22;24973;47.178;15.316;2023-05-19T20:18:16;13.70;99.90
21799;DHT22;24973;47.178;15.316;2023-05-19T20:21:05;13.70;99.90
21799;DHT22;24973;47.178;15.316;2023-05-19T20:23:54;13.70;99.90
21799;DHT22;24973;47.178;15.316;2023-05-19T20:26:42;13.70;99.90
21799;DHT22;24973;47.178;15.316;2023-05-19T20:29:31;13.70;99.90
21799;DHT22;24973;47.178;15.316;2023-05-19T20:32:21;13.70;99.90
21799;DHT22;24973;47.178;15.316;2023-05-19T20:35:10;13.70;99.90
21799;DHT22;24973;47.178;15.316;2023-05-19T20:37:59;13.70;99.90
21799;DHT22;24973;47.178;15.316;2023-05-19T20:40:47;13.80;99.90
21799;DHT22;24973;47.178;15.316;2023-05-19T20:43:37;13.80;99.90
21799;DHT22;24973;47.178;15.316;2023-05-19T20:46:25;13.80;99.90
21799;DHT22;24973;47.178;15.316;2023-05-19T20:49:16;13.80;99.90
21799;DHT22;24973;47.178;15.316;2023-05-19T20:52:06;13.80;99.90
21799;DHT22;24973;47.178;15.316;2023-05-19T20:54:54;13.80;99.90
21799;DHT22;24973;47.178;15.316;2023-05-19T20:57:43;13.80;99.90
21799;DHT22;24973;47.178;15.316;2023-05-19T21:00:32;13.80;99.90
21799;DHT22;24973;47.178;15.316;2023-05-19T21:03:20;13.80;99.90
21799;DHT22;24973;47.178;15.316;2023-05-19T21:06:11;13.70;99.90
21799;DHT22;24973;47.178;15.316;2023-05-19T21:08:59;13.60;99.90
21799;DHT22;24973;47.178;15.316;2023-05-19T21:11:51;13.60;99.90
21799;DHT22;24973;47.178;15.316;2023-05-19T21:14:40;13.60;99.90
21799;DHT22;24973;47.178;15.316;2023-05-19T21:17:29;13.60;99.90
21799;DHT22;24973;47.178;15.316;2023-05-19T21:20:17;13.60;99.90
21799;DHT22;24973;47.178;15.316;2023-05-19T21:23:07;13.60;99.90
21799;DHT22;24973;47.178;15.316;2023-05-19T21:25:56;13.50;99.90
21799;DHT22;24973;47.178;15.316;2023-05-19T21:28:46;13.50;99.90
21799;DHT22;24973;47.178;15.316;2023-05-19T21:31:35;13.40;99.90
21799;DHT22;24973;47.178;15.316;2023-05-19T21:34:23;13.40;99.90
21799;DHT22;24973;47.178;15.316;2023-05-19T21:37:12;13.50;99.90
21799;DHT22;24973;47.178;15.316;2023-05-19T21:40:04;13.50;99.90
21799;DHT22;24973;47.178;15.316;2023-05-19T21:42:54;13.50;99.90
21799;DHT22;24973;47.178;15.316;2023-05-19T21:45:42;13.50;99.90
21799;DHT22;24973;47.178;15.316;2023-05-19T21:48:31;13.50;99.90
21799;DHT22;24973;47.178;15.316;2023-05-19T21:51:20;13.50;99.90
21799;DHT22;24973;47.178;15.316;2023-05-19T21:54:09;13.50;99.90
21799;DHT22;24973;47.178;15.316;2023-05-19T21:56:59;13.50;99.90
21799;DHT22;24973;47.178;15.316;2023-05-19T21:59:48;13.50;99.90
21799;DHT22;24973;47.178;15.316;2023-05-19T22:02:37;13.50;99.90
21799;DHT22;24973;47.178;15.316;2023-05-19T22:05:28;13.40;99.90
21799;DHT22;24973;47.178;15.316;2023-05-19T22:08:18;13.50;99.90
21799;DHT22;24973;47.178;15.316;2023-05-19T22:11:08;13.50;99.90
21799;DHT22;24973;47.178;15.316;2023-05-19T22:13:58;13.50;99.90
21799;DHT22;24973;47.178;15.316;2023-05-19T22:16:47;13.40;99.90
21799;DHT22;24973;47.178;15.316;2023-05-19T22:19:36;13.40;99.90
21799;DHT22;24973;47.178;15.316;2023-05-19T22:22:24;13.40;99.90
21799;DHT22;24973;47.178;15.316;2023-05-19T22:25:13;13.30;99.90
21799;DHT22;24973;47.178;15.316;2023-05-19T22:28:02;13.20;99.90
21799;DHT22;24973;47.178;15.316;2023-05-19T22:30:55;13.20;99.90
21799;DHT22;24973;47.178;15.316;2023-05-19T22:33:44;13.20;99.90
21799;DHT22;24973;47.178;15.316;2023-05-19T22:36:33;13.20;99.90
21799;DHT22;24973;47.178;15.316;2023-05-19T22:39:21;13.20;99.90
21799;DHT22;24973;47.178;15.316;2023-05-19T22:42:10;13.20;99.90
21799;DHT22;24973;47.178;15.316;2023-05-19T22:44:59;13.30;99.90
21799;DHT22;24973;47.178;15.316;2023-05-19T22:47:49;13.30;99.90
21799;DHT22;24973;47.178;15.316;2023-05-19T22:50:38;13.30;99.90
21799;DHT22;24973;47.178;15.316;2023-05-19T22:53:27;13.40;99.90
21799;DHT22;24973;47.178;15.316;2023-05-19T22:56:16;13.40;99.90
21799;DHT22;24973;47.178;15.316;2023-05-19T22:59:05;13.30;99.90
21799;DHT22;24973;47.178;15.316;2023-05-19T23:01:53;13.20;99.90
21799;DHT22;24973;47.178;15.316;2023-05-19T23:04:43;13.10;99.90
21799;DHT22;24973;47.178;15.316;2023-05-19T23:07:32;13.10;99.90
21799;DHT22;24973;47.178;15.316;2023-05-19T23:10:21;13.10;99.90
21799;DHT22;24973;47.178;15.316;2023-05-19T23:13:10;13.20;99.90
21799;DHT22;24973;47.178;15.316;2023-05-19T23:15:59;13.20;99.90
21799;DHT22;24973;47.178;15.316;2023-05-19T23:18:47;13.20;99.90
21799;DHT22;24973;47.178;15.316;2023-05-19T23:21:38;13.20;99.90
21799;DHT22;24973;47.178;15.316;2023-05-19T23:24:26;13.20;99.90
21799;DHT22;24973;47.178;15.316;2023-05-19T23:27:15;13.20;99.90
21799;DHT22;24973;47.178;15.316;2023-05-19T23:30:05;13.10;99.90
21799;DHT22;24973;47.178;15.316;2023-05-19T23:32:55;13.00;99.90
21799;DHT22;24973;47.178;15.316;2023-05-19T23:35:44;13.00;99.90
21799;DHT22;24973;47.178;15.316;2023-05-19T23:38:35;13.00;99.90
21799;DHT22;24973;47.178;15.316;2023-05-19T23:41:24;13.00;99.90
21799;DHT22;24973;47.178;15.316;2023-05-19T23:44:13;13.00;99.90
21799;DHT22;24973;47.178;15.316;2023-05-19T23:47:01;13.00;99.90
21799;DHT22;24973;47.178;15.316;2023-05-19T23:49:50;13.00;99.90
21799;DHT22;24973;47.178;15.316;2023-05-19T23:52:39;13.00;99.90
21799;DHT22;24973;47.178;15.316;2023-05-19T23:55:29;13.00;99.90
21799;DHT22;24973;47.178;15.316;2023-05-19T23:58:18;13.00;99.90
